createdAt,value
2019-04-30T00:00:18.186Z,76.60
2019-04-30T00:03:01.751Z,79.13
2019-04-30T00:05:35.149Z,67.93
2019-04-30T00:08:05.997Z,78.67
2019-04-30T00:10:41.346Z,76.13
2019-04-30T00:13:14.538Z,80.20
2019-04-30T00:15:43.134Z,77.90
2019-04-30T00:18:15.514Z,79.50
2019-04-30T00:20:47.773Z,78.83
2019-04-30T00:23:22.590Z,82.13
2019-04-30T00:25:50.631Z,79.03
2019-04-30T00:28:21.777Z,88.40
2019-04-30T00:30:52.707Z,88.37
2019-04-30T00:33:27.489Z,74.97
2019-04-30T00:35:58.089Z,75.90
2019-04-30T00:38:33.526Z,85.93
2019-04-30T00:41:06.929Z,81.07
2019-04-30T00:43:37.792Z,78.93
2019-04-30T00:46:08.398Z,75.97
2019-04-30T00:48:39.675Z,77.30
2019-04-30T00:51:17.877Z,78.10
2019-04-30T00:53:48.509Z,80.10
2019-04-30T00:56:19.828Z,84.23
2019-04-30T00:58:48.333Z,89.67
2019-04-30T01:01:21.254Z,75.37
2019-04-30T01:03:59.638Z,73.47
2019-04-30T01:06:30.788Z,78.53
2019-04-30T01:09:05.379Z,77.57
2019-04-30T01:11:35.549Z,78.23
2019-04-30T01:14:06.660Z,77.73
2019-04-30T01:16:39.457Z,75.80
2019-04-30T01:19:21.287Z,86.37
2019-04-30T01:21:47.024Z,87.17
2019-04-30T01:24:16.151Z,81.43
2019-04-30T01:26:48.582Z,82.10
2019-04-30T01:29:20.509Z,81.67
2019-04-30T01:31:51.962Z,73.60
2019-04-30T01:34:22.975Z,80.80
2019-04-30T01:36:53.087Z,87.37
2019-04-30T01:39:29.977Z,86.33
2019-04-30T01:41:58.679Z,86.17
2019-04-30T01:44:30.639Z,83.23
2019-04-30T01:47:01.543Z,80.87
2019-04-30T01:49:42.231Z,82.63
2019-04-30T01:52:05.551Z,94.67
2019-04-30T01:54:36.720Z,97.33
2019-04-30T01:57:25.751Z,90.30
2019-04-30T02:00:04.416Z,85.93
2019-04-30T02:02:36.987Z,104.93
2019-04-30T02:05:08.933Z,87.43
2019-04-30T02:07:40.414Z,86.63
2019-04-30T02:10:11.952Z,87.97
2019-04-30T02:12:43.016Z,81.13
2019-04-30T02:15:14.176Z,74.70
2019-04-30T02:17:45.160Z,87.13
2019-04-30T02:20:15.543Z,84.77
2019-04-30T02:22:48.497Z,85.87
2019-04-30T02:25:19.857Z,79.33
2019-04-30T02:27:50.926Z,80.73
2019-04-30T02:30:21.908Z,80.57
2019-04-30T02:32:53.161Z,86.33
2019-04-30T02:35:28.921Z,87.93
2019-04-30T02:38:20.168Z,80.07
2019-04-30T02:40:52.944Z,80.47
2019-04-30T02:43:25.550Z,75.57
2019-04-30T02:45:59.914Z,86.43
2019-04-30T02:48:33.232Z,83.67
2019-04-30T02:51:06.294Z,77.57
2019-04-30T02:53:52.555Z,69.80
2019-04-30T02:56:26.758Z,74.27
2019-04-30T02:59:00.393Z,79.23
2019-04-30T03:01:30.786Z,71.63
2019-04-30T03:04:00.990Z,73.03
2019-04-30T03:06:32.163Z,79.37
2019-04-30T03:09:04.180Z,71.90
2019-04-30T03:11:35.434Z,59.83
2019-04-30T03:14:06.665Z,66.33
2019-04-30T03:16:54.341Z,76.13
2019-04-30T03:19:33.043Z,69.70
2019-04-30T03:22:10.165Z,66.67
2019-04-30T03:24:42.935Z,65.93
2019-04-30T03:27:14.369Z,67.43
2019-04-30T03:29:45.453Z,69.33
2019-04-30T03:32:21.452Z,70.77
2019-04-30T03:34:51.549Z,64.10
2019-04-30T03:37:22.293Z,69.43
2019-04-30T03:39:53.217Z,68.43
2019-04-30T03:42:24.996Z,65.03
2019-04-30T03:44:56.027Z,76.03
2019-04-30T03:47:26.300Z,77.23
2019-04-30T03:50:00.019Z,72.37
2019-04-30T03:52:30.270Z,62.83
2019-04-30T03:55:02.895Z,66.77
2019-04-30T03:57:34.099Z,64.83
2019-04-30T04:00:09.410Z,56.13
2019-04-30T04:02:41.954Z,67.57
2019-04-30T04:05:23.680Z,61.97
2019-04-30T04:08:09.545Z,64.03
2019-04-30T04:10:45.418Z,63.57
2019-04-30T04:13:16.677Z,66.17
2019-04-30T04:15:49.929Z,59.87
2019-04-30T04:18:20.635Z,62.17
2019-04-30T04:21:07.021Z,61.80
2019-04-30T04:23:24.515Z,67.17
2019-04-30T04:25:55.689Z,63.80
2019-04-30T04:28:26.850Z,61.00
2019-04-30T04:30:59.926Z,61.37
2019-04-30T04:33:29.871Z,61.43
2019-04-30T04:36:01.055Z,55.63
2019-04-30T04:38:32.300Z,58.53
2019-04-30T04:41:03.387Z,54.83
2019-04-30T04:43:34.433Z,56.40
2019-04-30T04:46:05.463Z,48.17
2019-04-30T04:48:39.370Z,50.83
2019-04-30T04:51:26.801Z,42.23
2019-04-30T04:53:42.166Z,43.10
2019-04-30T04:56:13.235Z,42.40
2019-04-30T04:58:44.493Z,42.73
2019-04-30T05:01:15.720Z,40.37
2019-04-30T05:03:49.023Z,44.10
2019-04-30T05:06:21.857Z,39.27
2019-04-30T05:08:51.966Z,39.30
2019-04-30T05:11:23.244Z,37.53
2019-04-30T05:13:58.893Z,37.40
2019-04-30T05:16:30.217Z,35.13
2019-04-30T05:19:01.309Z,32.77
2019-04-30T05:21:41.971Z,32.10
2019-04-30T05:24:05.307Z,32.93
2019-04-30T05:26:38.589Z,31.70
2019-04-30T05:29:09.554Z,33.83
2019-04-30T05:31:40.717Z,35.27
2019-04-30T05:34:11.734Z,30.53
2019-04-30T05:36:42.844Z,31.43
2019-04-30T05:39:13.906Z,26.83
2019-04-30T05:41:44.031Z,26.60
2019-04-30T05:44:18.544Z,27.57
2019-04-30T05:46:49.633Z,24.87
2019-04-30T05:49:20.850Z,25.33
2019-04-30T05:51:55.496Z,19.47
2019-04-30T05:54:24.763Z,19.93
2019-04-30T05:56:55.740Z,20.03
2019-04-30T05:59:28.813Z,20.43
2019-04-30T06:01:59.619Z,18.10
2019-04-30T06:04:30.941Z,19.43
2019-04-30T06:07:01.894Z,16.60
2019-04-30T06:09:34.752Z,17.33
2019-04-30T06:12:10.851Z,18.90
2019-04-30T06:15:00.302Z,19.67
2019-04-30T06:17:32.350Z,21.93
2019-04-30T06:20:16.129Z,19.57
2019-04-30T06:22:38.603Z,17.53
2019-04-30T06:25:10.809Z,17.13
2019-04-30T06:27:41.905Z,20.33
2019-04-30T06:30:13.241Z,16.77
2019-04-30T06:32:44.739Z,17.47
2019-04-30T06:35:15.975Z,16.77
2019-04-30T06:37:48.915Z,17.17
2019-04-30T06:40:20.886Z,16.43
2019-04-30T06:42:52.439Z,16.40
2019-04-30T06:45:23.337Z,16.57
2019-04-30T06:47:55.951Z,16.27
2019-04-30T06:50:26.876Z,15.70
2019-04-30T06:53:01.020Z,16.13
2019-04-30T06:55:31.080Z,15.57
2019-04-30T06:58:11.940Z,14.73
2019-04-30T07:00:40.062Z,14.83
2019-04-30T07:03:10.828Z,15.80
2019-04-30T07:05:42.048Z,15.80
2019-04-30T07:08:39.681Z,15.23
2019-04-30T07:11:20.411Z,16.13
2019-04-30T07:13:52.186Z,14.57
2019-04-30T07:16:23.696Z,14.80
2019-04-30T07:18:54.660Z,13.40
2019-04-30T07:21:25.938Z,15.93
2019-04-30T07:23:56.856Z,14.43
2019-04-30T07:26:28.892Z,15.07
2019-04-30T07:29:02.602Z,14.37
2019-04-30T07:31:32.999Z,14.00
2019-04-30T07:34:04.016Z,15.10
2019-04-30T07:36:48.401Z,15.50
2019-04-30T07:39:10.005Z,16.13
2019-04-30T07:41:41.504Z,16.93
2019-04-30T07:44:29.456Z,16.30
2019-04-30T07:46:45.446Z,17.03
2019-04-30T07:49:16.748Z,15.17
2019-04-30T07:51:51.083Z,19.77
2019-04-30T07:54:20.523Z,17.00
2019-04-30T07:56:51.546Z,15.27
2019-04-30T07:59:22.669Z,15.70
2019-04-30T08:02:06.433Z,15.30
2019-04-30T08:04:29.293Z,14.80
2019-04-30T08:07:02.126Z,15.87
2019-04-30T08:09:39.796Z,14.93
2019-04-30T08:12:06.384Z,15.23
2019-04-30T08:14:39.068Z,14.97
2019-04-30T08:17:10.057Z,14.30
2019-04-30T08:19:41.127Z,14.23
2019-04-30T08:22:12.378Z,17.73
2019-04-30T08:24:43.446Z,14.77
2019-04-30T08:27:14.751Z,12.77
2019-04-30T08:29:45.714Z,14.20
2019-04-30T08:32:18.931Z,14.10
2019-04-30T08:34:50.222Z,13.67
2019-04-30T08:37:21.553Z,12.73
2019-04-30T08:39:52.494Z,12.83
2019-04-30T08:42:33.293Z,12.50
2019-04-30T08:44:58.444Z,13.03
2019-04-30T08:47:29.359Z,12.47
2019-04-30T08:50:02.704Z,12.70
2019-04-30T08:52:33.403Z,12.07
2019-04-30T08:55:16.189Z,12.97
2019-04-30T08:57:39.911Z,13.30
2019-04-30T09:00:14.908Z,13.43
2019-04-30T09:02:44.683Z,13.47
2019-04-30T09:05:20.513Z,12.20
2019-04-30T09:07:51.503Z,13.73
2019-04-30T09:10:22.758Z,12.17
2019-04-30T09:12:53.695Z,13.03
2019-04-30T09:15:24.932Z,12.40
2019-04-30T09:18:03.300Z,13.93
2019-04-30T09:20:29.155Z,12.10
2019-04-30T09:23:00.149Z,12.57
2019-04-30T09:25:31.313Z,11.30
2019-04-30T09:28:04.472Z,16.03
2019-04-30T09:30:35.480Z,12.97
2019-04-30T09:33:06.607Z,12.60
2019-04-30T09:35:39.477Z,11.43
2019-04-30T09:38:10.230Z,12.13
2019-04-30T09:40:41.788Z,12.87
2019-04-30T09:43:13.013Z,11.57
2019-04-30T09:45:44.051Z,12.33
2019-04-30T09:48:15.121Z,12.23
2019-04-30T09:50:46.533Z,11.83
2019-04-30T09:53:19.508Z,11.63
2019-04-30T09:55:51.007Z,12.13
2019-04-30T09:58:22.438Z,11.70
2019-04-30T10:00:53.527Z,11.97
2019-04-30T10:03:25.254Z,10.67
2019-04-30T10:05:56.683Z,9.83
2019-04-30T10:08:27.447Z,12.03
2019-04-30T10:11:09.755Z,10.07
2019-04-30T10:13:39.920Z,13.33
2019-04-30T10:16:29.678Z,12.53
2019-04-30T10:19:01.430Z,13.43
2019-04-30T10:21:32.556Z,11.30
2019-04-30T10:24:13.037Z,11.73
2019-04-30T10:26:39.697Z,10.53
2019-04-30T10:29:11.160Z,10.93
2019-04-30T10:31:42.292Z,12.13
2019-04-30T10:34:13.593Z,10.90
2019-04-30T10:36:44.787Z,13.57
2019-04-30T10:39:15.744Z,10.97
2019-04-30T10:41:46.947Z,10.37
2019-04-30T10:44:18.792Z,12.70
2019-04-30T10:46:50.073Z,10.43
2019-04-30T10:49:21.252Z,12.40
2019-04-30T10:51:51.583Z,11.03
2019-04-30T10:54:26.068Z,10.43
2019-04-30T10:56:55.343Z,10.23
2019-04-30T10:59:26.670Z,9.50
2019-04-30T11:01:59.198Z,10.40
2019-04-30T11:04:30.612Z,10.90
2019-04-30T11:07:01.533Z,10.57
2019-04-30T11:09:33.262Z,10.97
2019-04-30T11:12:09.502Z,10.17
2019-04-30T11:14:40.657Z,11.17
2019-04-30T11:17:11.803Z,11.70
2019-04-30T11:19:43.258Z,9.27
2019-04-30T11:22:14.349Z,9.10
2019-04-30T11:24:56.605Z,10.87
2019-04-30T11:27:18.395Z,8.97
2019-04-30T11:29:50.215Z,10.40
2019-04-30T11:32:23.776Z,9.40
2019-04-30T11:34:54.874Z,9.73
2019-04-30T11:37:26.072Z,9.47
2019-04-30T11:39:57.176Z,9.73
2019-04-30T11:42:28.423Z,10.33
2019-04-30T11:44:59.376Z,8.70
2019-04-30T11:47:32.280Z,9.53
2019-04-30T11:50:04.462Z,8.90
2019-04-30T11:52:35.743Z,11.03
2019-04-30T11:55:09.637Z,12.37
2019-04-30T11:57:40.948Z,11.50
2019-04-30T12:00:16.217Z,10.00
2019-04-30T12:02:46.827Z,8.80
2019-04-30T12:05:20.523Z,11.57
2019-04-30T12:07:52.770Z,9.07
2019-04-30T12:10:34.968Z,10.40
2019-04-30T12:13:09.528Z,9.33
2019-04-30T12:15:40.745Z,8.60
2019-04-30T12:18:14.420Z,9.20
2019-04-30T12:20:45.506Z,10.43
2019-04-30T12:23:16.509Z,9.53
2019-04-30T12:25:49.269Z,9.97
2019-04-30T12:28:20.310Z,9.20
2019-04-30T12:30:51.596Z,12.87
2019-04-30T12:33:22.626Z,7.80
2019-04-30T12:35:53.914Z,8.07
2019-04-30T12:38:24.812Z,7.90
2019-04-30T12:40:55.053Z,9.03
2019-04-30T12:43:35.238Z,8.47
2019-04-30T12:46:14.776Z,7.67
2019-04-30T12:48:54.428Z,7.20
2019-04-30T12:51:31.029Z,7.00
2019-04-30T12:54:07.665Z,7.33
2019-04-30T12:56:57.141Z,7.60
2019-04-30T12:59:33.248Z,6.67
2019-04-30T13:02:13.021Z,8.87
2019-04-30T13:04:50.444Z,7.00
2019-04-30T13:07:32.125Z,8.80
2019-04-30T13:10:11.480Z,9.27
2019-04-30T13:12:44.325Z,6.47
2019-04-30T13:15:16.165Z,7.60
2019-04-30T13:17:50.137Z,8.10
2019-04-30T13:20:29.320Z,7.03
2019-04-30T13:23:05.091Z,6.70
2019-04-30T13:25:51.228Z,7.23
2019-04-30T13:28:25.467Z,8.53
2019-04-30T13:31:04.726Z,6.47
2019-04-30T13:33:47.899Z,6.87
2019-04-30T13:36:23.093Z,9.23
2019-04-30T13:38:59.390Z,7.40
2019-04-30T13:41:46.004Z,7.53
2019-04-30T13:44:19.521Z,6.73
2019-04-30T13:46:49.805Z,7.73
2019-04-30T13:49:21.090Z,6.90
2019-04-30T13:51:58.873Z,10.73
2019-04-30T13:54:41.486Z,7.33
2019-04-30T13:57:20.483Z,6.97
2019-04-30T13:59:59.632Z,7.23
2019-04-30T14:02:40.077Z,6.37
2019-04-30T14:05:20.469Z,7.53
2019-04-30T14:08:09.543Z,7.37
2019-04-30T14:10:49.327Z,6.87
2019-04-30T14:13:26.242Z,6.20
2019-04-30T14:16:01.587Z,6.27
2019-04-30T14:18:34.186Z,5.50
2019-04-30T14:21:10.788Z,5.70
2019-04-30T14:23:41.928Z,5.83
2019-04-30T14:26:13.221Z,5.60
2019-04-30T14:28:44.239Z,5.37
2019-04-30T14:31:15.709Z,5.40
2019-04-30T14:33:46.839Z,7.60
2019-04-30T14:36:19.296Z,5.30
2019-04-30T14:38:49.946Z,8.77
2019-04-30T14:41:21.652Z,7.10
2019-04-30T14:43:57.529Z,9.73
2019-04-30T14:46:42.539Z,6.73
2019-04-30T14:49:33.040Z,4.87
2019-04-30T14:52:04.902Z,5.50
2019-04-30T14:54:37.797Z,6.37
2019-04-30T14:57:25.908Z,7.80
2019-04-30T15:00:01.854Z,4.67
2019-04-30T15:02:33.317Z,4.80
2019-04-30T15:05:08.816Z,4.87
2019-04-30T15:07:39.744Z,4.60
2019-04-30T15:10:11.215Z,5.33
2019-04-30T15:12:42.162Z,5.73
2019-04-30T15:15:14.291Z,4.30
2019-04-30T15:17:45.185Z,3.23
2019-04-30T15:20:16.714Z,6.43
2019-04-30T15:22:55.518Z,4.60
2019-04-30T15:25:34.034Z,4.07
2019-04-30T15:27:59.619Z,3.60
2019-04-30T15:30:29.822Z,5.20
2019-04-30T15:33:18.780Z,5.17
2019-04-30T15:35:50.306Z,5.57
2019-04-30T15:38:23.062Z,4.23
2019-04-30T15:40:54.038Z,2.97
2019-04-30T15:43:25.608Z,2.43
2019-04-30T15:45:57.330Z,3.50
2019-04-30T15:48:28.488Z,2.70
2019-04-30T15:50:59.528Z,3.10
2019-04-30T15:53:30.706Z,5.63
2019-04-30T15:56:01.732Z,5.60
2019-04-30T15:58:34.580Z,6.73
2019-04-30T16:01:09.009Z,5.17
2019-04-30T16:03:41.774Z,4.00
2019-04-30T16:06:12.755Z,3.33
2019-04-30T16:08:47.312Z,4.33
2019-04-30T16:11:26.031Z,4.57
2019-04-30T16:14:09.647Z,3.17
2019-04-30T16:16:42.450Z,2.53
2019-04-30T16:19:13.466Z,6.67
2019-04-30T16:21:44.545Z,5.80
2019-04-30T16:24:15.710Z,3.03
2019-04-30T16:26:50.654Z,4.07
2019-04-30T16:29:19.623Z,3.80
2019-04-30T16:31:51.031Z,2.77
2019-04-30T16:34:21.939Z,5.83
2019-04-30T16:36:56.385Z,3.50
2019-04-30T16:39:28.795Z,3.43
2019-04-30T16:42:00.081Z,2.77
2019-04-30T16:44:31.146Z,4.30
2019-04-30T16:47:13.106Z,2.27
2019-04-30T16:49:35.060Z,2.20
2019-04-30T16:52:05.472Z,5.90
2019-04-30T16:54:36.714Z,1.87
2019-04-30T16:57:10.086Z,3.50
2019-04-30T16:59:43.820Z,5.33
2019-04-30T17:02:15.018Z,4.13
2019-04-30T17:04:53.808Z,1.43
2019-04-30T17:07:26.482Z,2.53
2019-04-30T17:10:05.593Z,3.40
2019-04-30T17:12:53.213Z,2.30
2019-04-30T17:15:29.219Z,2.17
2019-04-30T17:18:00.432Z,3.93
2019-04-30T17:20:31.597Z,2.00
2019-04-30T17:23:02.502Z,2.23
2019-04-30T17:25:33.996Z,3.03
2019-04-30T17:28:05.256Z,1.83
2019-04-30T17:30:36.474Z,5.50
2019-04-30T17:33:09.532Z,2.40
2019-04-30T17:35:39.361Z,4.30
2019-04-30T17:38:11.685Z,2.43
2019-04-30T17:40:42.650Z,1.90
2019-04-30T17:43:14.032Z,2.47
2019-04-30T17:45:45.079Z,4.87
2019-04-30T17:48:16.398Z,3.07
2019-04-30T17:50:49.635Z,4.90
2019-04-30T17:53:20.726Z,5.40
2019-04-30T17:55:51.760Z,2.40
2019-04-30T17:58:25.849Z,2.30
2019-04-30T18:00:59.798Z,1.93
2019-04-30T18:03:30.981Z,2.50
2019-04-30T18:06:02.211Z,3.43
2019-04-30T18:08:32.284Z,2.60
2019-04-30T18:11:03.428Z,5.13
2019-04-30T18:13:34.803Z,2.30
2019-04-30T18:16:06.499Z,3.07
2019-04-30T18:18:42.537Z,3.67
2019-04-30T18:21:19.085Z,2.27
2019-04-30T18:24:08.656Z,2.63
2019-04-30T18:26:44.642Z,3.93
2019-04-30T18:29:16.211Z,3.57
2019-04-30T18:31:47.570Z,3.10
2019-04-30T18:34:19.993Z,3.87
2019-04-30T18:36:51.369Z,2.63
2019-04-30T18:39:22.212Z,4.07
2019-04-30T18:41:53.654Z,5.17
2019-04-30T18:44:29.466Z,4.10
2019-04-30T18:47:00.679Z,4.20
2019-04-30T18:49:33.296Z,4.00
2019-04-30T18:52:03.580Z,5.27
2019-04-30T18:54:34.833Z,7.23
2019-04-30T18:57:08.897Z,3.23
2019-04-30T18:59:40.169Z,2.70
2019-04-30T19:02:13.357Z,4.07
2019-04-30T19:04:44.576Z,4.23
2019-04-30T19:07:20.052Z,5.77
2019-04-30T19:09:58.905Z,7.30
2019-04-30T19:16:08.861Z,8.63
2019-04-30T19:18:23.003Z,5.47
2019-04-30T19:20:57.453Z,5.73
2019-04-30T19:23:31.529Z,6.47
2019-04-30T19:26:02.651Z,8.47
2019-04-30T19:28:36.026Z,8.43
2019-04-30T19:31:11.695Z,6.30
2019-04-30T19:33:48.855Z,7.50
2019-04-30T19:36:33.906Z,6.37
2019-04-30T19:38:55.074Z,6.87
2019-04-30T19:41:26.245Z,6.70
2019-04-30T19:43:57.260Z,5.90
2019-04-30T19:46:29.324Z,5.53
2019-04-30T19:49:00.233Z,7.47
2019-04-30T19:51:32.112Z,5.20
2019-04-30T19:54:03.226Z,6.77
2019-04-30T19:56:34.329Z,5.90
2019-04-30T19:59:05.915Z,5.13
2019-04-30T20:04:36.786Z,6.50
2019-04-30T20:07:08.841Z,7.20
2019-04-30T20:09:42.983Z,3.83
2019-04-30T20:12:13.366Z,5.23
2019-04-30T20:14:44.538Z,4.60
2019-04-30T20:17:15.812Z,4.97
2019-04-30T20:19:49.715Z,4.43
2019-04-30T20:22:22.848Z,5.60
2019-04-30T20:24:53.017Z,4.80
2019-04-30T20:27:24.343Z,3.33
2019-04-30T20:29:56.228Z,3.30
2019-04-30T20:32:36.223Z,4.07
2019-04-30T20:35:02.720Z,4.80
2019-04-30T20:37:54.936Z,4.27
2019-04-30T20:40:33.280Z,6.30
2019-04-30T20:43:00.696Z,4.40
2019-04-30T20:45:33.135Z,4.53
2019-04-30T20:48:05.430Z,4.47
2019-04-30T20:50:38.102Z,4.47
2019-04-30T20:53:09.370Z,6.33
2019-04-30T20:55:40.837Z,6.07
2019-04-30T20:58:13.448Z,5.00
2019-04-30T21:00:44.789Z,6.53
2019-04-30T21:03:15.848Z,7.83
2019-04-30T21:05:46.869Z,5.30
2019-04-30T21:08:17.023Z,8.50
2019-04-30T21:10:49.445Z,6.93
2019-04-30T21:13:20.655Z,5.07
2019-04-30T21:15:54.835Z,6.33
2019-04-30T21:18:24.608Z,5.80
2019-04-30T21:20:55.758Z,6.40
2019-04-30T21:23:26.659Z,7.13
2019-04-30T21:25:58.981Z,6.60
2019-04-30T21:28:30.096Z,8.17
2019-04-30T21:31:02.874Z,7.27
2019-04-30T21:33:38.449Z,6.03
2019-04-30T21:36:18.887Z,5.63
2019-04-30T21:38:50.115Z,8.70
2019-04-30T21:41:21.388Z,5.57
2019-04-30T21:43:52.290Z,7.50
2019-04-30T21:46:22.446Z,6.07
2019-04-30T21:48:53.545Z,6.20
2019-04-30T21:51:24.531Z,5.50
2019-04-30T21:53:55.651Z,7.63
2019-04-30T21:56:26.621Z,7.60
2019-04-30T21:58:57.697Z,6.90
2019-04-30T22:01:29.303Z,6.77
2019-04-30T22:04:00.664Z,6.47
2019-04-30T22:06:31.640Z,5.53
2019-04-30T22:09:09.709Z,6.87
2019-04-30T22:11:40.837Z,8.83
2019-04-30T22:14:12.629Z,7.43
2019-04-30T22:16:43.732Z,6.83
2019-04-30T22:19:13.943Z,5.67
2019-04-30T22:21:45.463Z,6.30
2019-04-30T22:24:16.309Z,6.80
2019-04-30T22:26:47.474Z,8.53
2019-04-30T22:29:19.130Z,5.70
2019-04-30T22:31:50.361Z,7.80
2019-04-30T22:34:21.905Z,9.60
2019-04-30T22:36:54.469Z,9.03
2019-04-30T22:39:30.080Z,6.67
2019-04-30T22:42:04.392Z,8.90
2019-04-30T22:44:35.273Z,9.73
2019-04-30T22:47:06.711Z,9.90
2019-04-30T22:49:37.771Z,8.17
2019-04-30T22:52:09.051Z,10.03
2019-04-30T22:54:40.034Z,8.30
2019-04-30T22:57:10.151Z,9.17
2019-04-30T22:59:49.838Z,6.73
2019-04-30T23:02:21.251Z,6.77
2019-04-30T23:04:53.446Z,6.53
2019-04-30T23:07:27.229Z,10.20
2019-04-30T23:09:58.565Z,7.63
2019-04-30T23:12:29.599Z,7.10
2019-04-30T23:15:00.795Z,11.00
2019-04-30T23:17:31.809Z,8.10
2019-04-30T23:20:03.421Z,6.97
2019-04-30T23:22:34.458Z,7.97
2019-04-30T23:25:06.466Z,8.67
2019-04-30T23:27:37.346Z,8.53
2019-04-30T23:30:08.869Z,13.67
2019-04-30T23:32:39.809Z,7.50
2019-04-30T23:35:10.301Z,9.27
2019-04-30T23:37:41.588Z,9.43
2019-04-30T23:40:30.375Z,9.27
2019-04-30T23:43:01.667Z,9.10
2019-04-30T23:45:32.581Z,9.40
2019-04-30T23:48:03.711Z,8.67
2019-04-30T23:50:34.644Z,8.73
2019-04-30T23:53:05.943Z,8.33
2019-04-30T23:55:37.016Z,10.77
2019-04-30T23:58:08.446Z,12.63
